Time;durP1;ratioP1;P1;durP2;ratioP2;P2;SDS_P1;SDS_P2;PMS_P1;PMS_P2;Temp;Humidity;BMP_temperature;BMP_pressure;BME280_temperature;BME280_humidity;BME280_pressure;Samples;Min_cycle;Max_cycle;Signal;HPM_P1;HPM_P2
2024/01/13 00:00:52;;;;;;;51.87;23.53;;;-2.00;99.90;;;;;;5027035;28;20209;-68
2024/01/13 00:03:17;;;;;;;43.13;21.93;;;-1.90;99.90;;;;;;5023703;28;20202;-68
2024/01/13 00:05:43;;;;;;;47.80;24.33;;;-1.80;99.90;;;;;;5020618;28;20233;-68
2024/01/13 00:08:08;;;;;;;42.07;21.37;;;-1.80;99.90;;;;;;5015066;28;20230;-67
2024/01/13 00:10:34;;;;;;;41.20;21.43;;;-1.90;99.90;;;;;;5014897;28;20198;-68
2024/01/13 00:13:00;;;;;;;46.17;24.50;;;-1.90;99.90;;;;;;5011537;28;20582;-68
2024/01/13 00:15:25;;;;;;;40.37;22.73;;;-1.90;99.90;;;;;;5023577;28;20186;-68
2024/01/13 00:17:51;;;;;;;43.10;23.17;;;-1.90;99.90;;;;;;5014862;28;20179;-68
2024/01/13 00:20:17;;;;;;;42.50;22.10;;;-2.00;99.90;;;;;;5015326;28;20210;-67
2024/01/13 00:22:47;;;;;;;49.63;23.70;;;-2.00;99.90;;;;;;5013179;28;20175;-68
2024/01/13 00:25:14;;;;;;;38.40;21.63;;;-2.00;99.90;;;;;;5025649;28;20913;-68
2024/01/13 00:27:40;;;;;;;47.03;22.60;;;-2.10;99.90;;;;;;5012232;28;20442;-67
2024/01/13 00:30:06;;;;;;;45.13;20.40;;;-2.10;99.90;;;;;;5034044;28;20429;-68
2024/01/13 00:32:31;;;;;;;41.13;21.67;;;-2.20;99.90;;;;;;5028171;28;20266;-68
2024/01/13 00:34:57;;;;;;;48.63;25.20;;;-2.20;99.90;;;;;;5025604;28;20543;-68
2024/01/13 00:37:22;;;;;;;42.93;21.80;;;-2.20;99.90;;;;;;5018617;28;20659;-68
2024/01/13 00:39:48;;;;;;;48.33;24.20;;;-2.20;99.90;;;;;;5022739;28;20221;-68
2024/01/13 00:42:13;;;;;;;52.90;24.90;;;-2.20;99.90;;;;;;5033714;28;20181;-69
2024/01/13 00:44:39;;;;;;;43.57;21.80;;;-2.20;99.90;;;;;;5022256;28;20199;-68
2024/01/13 00:47:04;;;;;;;54.60;24.27;;;-2.20;99.90;;;;;;5019844;28;20178;-68
2024/01/13 00:49:30;;;;;;;48.57;23.70;;;-2.10;99.90;;;;;;5026133;28;20674;-67
2024/01/13 00:51:55;;;;;;;41.47;21.60;;;-2.00;99.90;;;;;;5034356;28;20262;-68
2024/01/13 00:54:21;;;;;;;50.00;25.20;;;-2.00;99.90;;;;;;5033007;28;20209;-67
2024/01/13 00:56:47;;;;;;;48.50;24.00;;;-2.00;99.90;;;;;;5025590;28;20208;-68
2024/01/13 00:59:12;;;;;;;48.83;25.90;;;-1.90;99.90;;;;;;5013703;28;20210;-68
2024/01/13 01:01:38;;;;;;;51.73;24.60;;;-1.90;99.90;;;;;;5013973;28;20213;-67
2024/01/13 01:04:03;;;;;;;48.17;23.70;;;-1.90;99.90;;;;;;5014247;28;20198;-68
2024/01/13 01:06:29;;;;;;;52.17;24.87;;;-1.80;99.90;;;;;;5013994;28;20632;-67
2024/01/13 01:08:54;;;;;;;52.23;24.07;;;-1.80;99.90;;;;;;5020874;28;20195;-68
2024/01/13 01:11:20;;;;;;;50.87;28.00;;;-1.80;99.90;;;;;;5014725;28;20187;-68
2024/01/13 01:13:45;;;;;;;50.13;27.30;;;-1.80;99.90;;;;;;5022422;28;20249;-68
2024/01/13 01:16:11;;;;;;;50.37;25.43;;;-1.90;99.90;;;;;;5021472;28;20186;-67
2024/01/13 01:18:37;;;;;;;52.33;27.90;;;-2.10;99.90;;;;;;5012819;28;20331;-68
2024/01/13 01:21:02;;;;;;;47.53;26.20;;;-2.10;99.90;;;;;;5022034;28;20202;-67
2024/01/13 01:23:28;;;;;;;46.20;28.60;;;-2.10;99.90;;;;;;5013333;28;20223;-67
2024/01/13 01:25:53;;;;;;;46.80;24.97;;;-1.90;99.90;;;;;;5021375;28;20533;-68
2024/01/13 01:28:19;;;;;;;54.20;28.87;;;-1.90;99.90;;;;;;5023789;28;20175;-68
2024/01/13 01:30:44;;;;;;;55.40;27.20;;;-1.90;99.90;;;;;;5026657;28;20187;-68
2024/01/13 01:33:10;;;;;;;60.53;28.77;;;-2.00;99.90;;;;;;5014815;28;20220;-68
2024/01/13 01:35:35;;;;;;;57.23;27.60;;;-2.10;99.90;;;;;;5025977;28;20198;-68
2024/01/13 01:38:01;;;;;;;60.80;28.47;;;-2.20;99.90;;;;;;5018296;28;20636;-68
2024/01/13 01:40:30;;;;;;;60.37;28.13;;;-2.10;99.90;;;;;;5025165;28;20224;-68
2024/01/13 01:42:55;;;;;;;52.60;28.30;;;-2.10;99.90;;;;;;5027670;28;20198;-67
2024/01/13 01:45:21;;;;;;;53.80;27.43;;;-2.10;99.90;;;;;;5027070;28;20785;-68
2024/01/13 01:47:48;;;;;;;62.20;27.10;;;-2.00;99.90;;;;;;5002154;28;20656;-68
2024/01/13 01:50:14;;;;;;;56.97;26.80;;;-2.00;99.90;;;;;;5013540;28;20177;-68
2024/01/13 01:52:40;;;;;;;60.17;29.87;;;-1.90;99.90;;;;;;5007475;28;20437;-68
2024/01/13 01:55:07;;;;;;;59.53;28.83;;;-1.90;99.90;;;;;;5022917;28;20186;-68
2024/01/13 01:57:36;;;;;;;65.33;28.70;;;-1.90;99.90;;;;;;5032286;28;20429;-68
2024/01/13 02:00:02;;;;;;;62.83;28.93;;;-2.00;99.90;;;;;;5021862;28;20907;-68
2024/01/13 02:02:28;;;;;;;58.43;29.67;;;-1.90;99.90;;;;;;5032972;28;20799;-68
2024/01/13 02:04:55;;;;;;;52.30;27.03;;;-1.90;99.90;;;;;;5027045;28;20457;-68
2024/01/13 02:07:20;;;;;;;57.47;28.17;;;-1.90;99.90;;;;;;5016547;28;20928;-68
2024/01/13 02:09:47;;;;;;;50.33;28.17;;;-1.90;99.90;;;;;;5022399;28;20441;-68
2024/01/13 02:12:12;;;;;;;59.60;28.73;;;-1.80;99.90;;;;;;5023642;28;20183;-68
2024/01/13 02:14:38;;;;;;;60.20;25.90;;;-1.80;99.90;;;;;;5016861;28;20805;-68
2024/01/13 02:17:04;;;;;;;57.20;29.20;;;-1.90;99.90;;;;;;5021914;28;20558;-67
2024/01/13 02:19:32;;;;;;;57.00;29.93;;;-1.90;99.90;;;;;;5020304;28;20233;-68
2024/01/13 02:21:59;;;;;;;61.63;28.07;;;-1.80;99.90;;;;;;5030894;28;20174;-68
2024/01/13 02:24:24;;;;;;;71.00;27.63;;;-1.70;99.90;;;;;;5025778;28;21005;-68
2024/01/13 02:26:50;;;;;;;52.77;27.23;;;-1.70;99.90;;;;;;4998124;28;20430;-68
2024/01/13 02:29:15;;;;;;;49.07;26.80;;;-1.70;99.90;;;;;;5013489;28;20197;-67
2024/01/13 02:31:41;;;;;;;54.73;28.00;;;-1.80;99.90;;;;;;5018311;28;20659;-68
2024/01/13 02:34:06;;;;;;;48.37;24.70;;;-1.80;99.90;;;;;;5050946;22;20245;-71
2024/01/13 02:36:32;;;;;;;45.83;25.40;;;-1.80;99.90;;;;;;5043426;28;20555;-71
2024/01/13 02:38:57;;;;;;;56.10;26.80;;;-1.80;99.90;;;;;;5048651;28;20267;-71
2024/01/13 02:41:23;;;;;;;43.30;23.43;;;-1.80;99.90;;;;;;5051608;28;20170;-70
2024/01/13 02:43:49;;;;;;;48.33;23.40;;;-1.80;99.90;;;;;;5043847;28;20670;-70
2024/01/13 02:46:15;;;;;;;46.60;25.17;;;-1.70;99.90;;;;;;5049456;28;20177;-70
2024/01/13 02:48:44;;;;;;;48.23;24.80;;;-1.70;99.90;;;;;;5035152;28;20443;-71
2024/01/13 02:51:13;;;;;;;44.70;23.20;;;-1.70;99.90;;;;;;5049515;28;20186;-70
2024/01/13 02:53:39;;;;;;;51.70;23.87;;;-1.80;99.90;;;;;;5053107;28;20448;-70
2024/01/13 02:56:05;;;;;;;48.67;25.50;;;-1.70;99.90;;;;;;5041885;28;20512;-70
2024/01/13 02:58:30;;;;;;;53.77;25.20;;;-1.70;99.90;;;;;;5050420;28;20196;-70
2024/01/13 03:00:56;;;;;;;51.93;25.13;;;-1.70;99.90;;;;;;5046992;28;20285;-70
2024/01/13 03:03:21;;;;;;;48.20;25.07;;;-1.60;99.90;;;;;;5043524;28;20862;-70
2024/01/13 03:05:47;;;;;;;53.53;24.90;;;-1.60;99.90;;;;;;5048834;28;20254;-70
2024/01/13 03:08:12;;;;;;;47.77;26.10;;;-1.70;99.90;;;;;;5046753;28;20280;-70
2024/01/13 03:10:38;;;;;;;51.63;23.43;;;-1.80;99.90;;;;;;5031804;28;20178;-70
2024/01/13 03:13:04;;;;;;;57.53;24.97;;;-1.80;99.90;;;;;;5057915;28;20192;-70
2024/01/13 03:15:29;;;;;;;53.40;26.00;;;-1.80;99.90;;;;;;5041214;28;20584;-70
2024/01/13 03:17:55;;;;;;;59.30;25.20;;;-1.90;99.90;;;;;;5044714;28;20193;-70
2024/01/13 03:20:20;;;;;;;58.47;25.93;;;-1.90;99.90;;;;;;5062452;28;20630;-70
2024/01/13 03:22:46;;;;;;;53.67;22.53;;;-2.00;99.90;;;;;;5047048;28;20540;-70
2024/01/13 03:25:11;;;;;;;55.00;25.23;;;-2.00;99.90;;;;;;5043336;28;20216;-70
2024/01/13 03:27:37;;;;;;;50.07;25.50;;;-2.00;99.90;;;;;;5050854;28;20213;-70
2024/01/13 03:30:03;;;;;;;48.40;24.90;;;-2.00;99.90;;;;;;5060241;28;20170;-71
2024/01/13 03:32:29;;;;;;;50.67;24.90;;;-2.00;99.90;;;;;;5066783;28;20176;-70
2024/01/13 03:34:54;;;;;;;46.57;25.00;;;-2.00;99.90;;;;;;5044061;28;20468;-70
2024/01/13 03:37:20;;;;;;;49.90;26.13;;;-2.00;99.90;;;;;;5040854;28;20174;-70
2024/01/13 03:39:45;;;;;;;52.00;25.40;;;-1.90;99.90;;;;;;5039301;28;20299;-70
2024/01/13 03:42:11;;;;;;;60.27;27.93;;;-1.90;99.90;;;;;;5048943;28;20185;-70
2024/01/13 03:44:36;;;;;;;56.07;26.43;;;-2.00;99.90;;;;;;5052417;28;20666;-70
2024/01/13 03:47:02;;;;;;;54.50;28.70;;;-1.90;99.90;;;;;;5047330;28;20201;-70
2024/01/13 03:49:27;;;;;;;54.33;26.50;;;-1.90;99.90;;;;;;5049446;28;20681;-70
2024/01/13 03:51:52;;;;;;;55.00;26.53;;;-1.90;99.90;;;;;;5050547;28;20260;-71
2024/01/13 03:54:18;;;;;;;62.57;29.37;;;-1.80;99.90;;;;;;5060354;28;20202;-70
2024/01/13 03:56:44;;;;;;;54.97;27.40;;;-1.80;99.90;;;;;;5041283;28;20202;-70
2024/01/13 03:59:12;;;;;;;55.30;26.00;;;-1.80;99.90;;;;;;5038510;28;20285;-70
2024/01/13 04:01:38;;;;;;;55.80;28.13;;;-1.90;99.90;;;;;;5037322;28;20200;-70
2024/01/13 04:04:03;;;;;;;53.97;27.10;;;-1.80;99.90;;;;;;5057352;28;20474;-70
2024/01/13 04:06:29;;;;;;;54.07;27.00;;;-1.80;99.90;;;;;;5052010;28;20169;-70
2024/01/13 04:08:54;;;;;;;47.30;24.77;;;-1.80;99.90;;;;;;5035003;28;20500;-70
2024/01/13 04:11:20;;;;;;;46.50;24.00;;;-1.80;99.90;;;;;;5064081;28;20178;-70
2024/01/13 04:13:45;;;;;;;58.00;26.50;;;-1.90;99.90;;;;;;5048946;28;20202;-70
2024/01/13 04:16:11;;;;;;;53.10;22.97;;;-1.80;99.90;;;;;;5053047;28;20585;-70
2024/01/13 04:18:37;;;;;;;46.63;25.70;;;-1.80;99.90;;;;;;5054296;28;20225;-70
2024/01/13 04:21:03;;;;;;;52.07;26.30;;;-1.90;99.90;;;;;;5054087;28;20178;-70
2024/01/13 04:23:29;;;;;;;46.37;25.00;;;-1.90;99.90;;;;;;5055241;28;20453;-70
2024/01/13 04:25:54;;;;;;;55.63;26.43;;;-1.90;99.90;;;;;;5044523;28;20175;-71
2024/01/13 04:28:20;;;;;;;57.87;26.57;;;-1.90;99.90;;;;;;5052116;28;20172;-70
2024/01/13 04:30:45;;;;;;;54.43;25.50;;;-1.90;99.90;;;;;;5052829;28;20185;-70
2024/01/13 04:33:11;;;;;;;53.00;27.10;;;-1.90;99.90;;;;;;5053350;28;20177;-70
2024/01/13 04:35:36;;;;;;;71.87;28.77;;;-1.80;99.90;;;;;;5045883;28;20267;-70
2024/01/13 04:38:02;;;;;;;57.20;25.80;;;-1.80;99.90;;;;;;5050911;28;20186;-71
2024/01/13 04:40:29;;;;;;;57.90;27.80;;;-1.90;99.90;;;;;;5051070;28;20226;-70
2024/01/13 04:42:55;;;;;;;58.30;27.23;;;-2.00;99.90;;;;;;5044472;28;20943;-71
2024/01/13 04:45:21;;;;;;;58.83;28.13;;;-2.00;99.90;;;;;;5054964;28;20449;-70
2024/01/13 04:47:46;;;;;;;65.80;30.00;;;-1.90;99.90;;;;;;5053613;28;20189;-70
2024/01/13 04:50:12;;;;;;;54.10;25.50;;;-1.90;99.90;;;;;;5056410;28;20217;-70
2024/01/13 04:52:37;;;;;;;58.20;27.27;;;-2.00;99.90;;;;;;5054445;28;20246;-70
2024/01/13 04:55:03;;;;;;;58.17;26.70;;;-1.90;99.90;;;;;;5043886;28;20614;-70
2024/01/13 04:57:29;;;;;;;51.63;26.90;;;-1.90;99.90;;;;;;5056392;28;20188;-70
2024/01/13 04:59:54;;;;;;;56.30;25.57;;;-1.90;99.90;;;;;;5051712;28;20463;-71
2024/01/13 05:02:20;;;;;;;44.93;22.93;;;-1.90;99.90;;;;;;5038608;28;20190;-70
2024/01/13 05:04:45;;;;;;;54.57;24.93;;;-2.00;99.90;;;;;;5052382;28;20655;-71
2024/01/13 05:07:11;;;;;;;57.27;26.83;;;-1.90;99.90;;;;;;5055406;28;20174;-70
2024/01/13 05:09:37;;;;;;;51.30;24.33;;;-1.90;99.90;;;;;;5049284;28;20178;-71
2024/01/13 05:12:03;;;;;;;66.13;28.17;;;-1.80;99.90;;;;;;5042363;28;20661;-70
2024/01/13 05:14:28;;;;;;;51.50;25.27;;;-1.80;99.90;;;;;;5061274;28;20533;-70
2024/01/13 05:16:54;;;;;;;54.50;27.20;;;-1.70;99.90;;;;;;5047357;28;20663;-70
2024/01/13 05:19:20;;;;;;;58.40;25.80;;;-1.70;99.90;;;;;;5062446;28;20201;-71
2024/01/13 05:21:45;;;;;;;57.70;28.13;;;-1.80;99.90;;;;;;5070581;28;20304;-70
2024/01/13 05:24:12;;;;;;;58.90;23.93;;;-1.80;99.90;;;;;;5066289;28;20534;-71
2024/01/13 05:26:38;;;;;;;54.13;28.03;;;-1.80;99.90;;;;;;5049506;28;20182;-70
2024/01/13 05:29:03;;;;;;;57.73;26.20;;;-1.80;99.90;;;;;;5045453;28;20523;-71
2024/01/13 05:31:29;;;;;;;60.70;27.40;;;-1.80;99.90;;;;;;5041827;28;20425;-70
2024/01/13 05:33:55;;;;;;;55.30;27.10;;;-1.80;99.90;;;;;;5035922;28;20241;-71
2024/01/13 05:36:21;;;;;;;63.40;28.43;;;-1.80;99.90;;;;;;5053473;28;21390;-71
2024/01/13 05:38:47;;;;;;;64.90;30.77;;;-1.70;99.90;;;;;;5052993;28;20420;-70
2024/01/13 05:41:12;;;;;;;59.70;27.70;;;-1.70;99.90;;;;;;5049665;28;20469;-71
2024/01/13 05:43:38;;;;;;;58.60;26.40;;;-1.70;99.90;;;;;;5051788;28;20248;-71
2024/01/13 05:46:03;;;;;;;56.17;29.57;;;-1.60;99.90;;;;;;5044598;28;20189;-70
2024/01/13 05:48:29;;;;;;;62.93;28.03;;;-1.60;99.90;;;;;;5051306;28;20180;-71
2024/01/13 05:50:54;;;;;;;59.93;26.37;;;-1.60;99.90;;;;;;5066090;28;20199;-70
2024/01/13 05:53:20;;;;;;;50.73;25.80;;;-1.50;99.90;;;;;;5064735;28;20197;-71
2024/01/13 05:55:45;;;;;;;51.00;24.27;;;-1.60;99.90;;;;;;5036076;28;20194;-71
2024/01/13 05:58:11;;;;;;;54.77;26.77;;;-1.70;99.90;;;;;;5044250;28;20182;-71
2024/01/13 06:00:36;;;;;;;50.93;27.50;;;-1.70;99.90;;;;;;5053007;28;20686;-71
2024/01/13 06:03:02;;;;;;;54.10;26.17;;;-1.70;99.90;;;;;;5041797;28;20178;-70
2024/01/13 06:05:28;;;;;;;61.73;28.30;;;-1.70;99.90;;;;;;5043229;28;20260;-71
2024/01/13 06:07:54;;;;;;;54.27;25.67;;;-1.80;99.90;;;;;;5048081;28;20512;-70
2024/01/13 06:10:19;;;;;;;49.93;25.00;;;-1.80;99.90;;;;;;5056066;28;20550;-70
2024/01/13 06:12:45;;;;;;;57.63;24.47;;;-1.80;99.90;;;;;;5054827;28;20185;-71
2024/01/13 06:15:11;;;;;;;58.20;26.30;;;-1.80;99.90;;;;;;5051748;28;20202;-70
2024/01/13 06:17:37;;;;;;;62.97;29.27;;;-1.80;99.90;;;;;;5040070;28;20925;-71
2024/01/13 06:20:03;;;;;;;53.27;23.87;;;-1.80;99.90;;;;;;5048041;28;20541;-71
2024/01/13 06:22:29;;;;;;;47.00;22.70;;;-2.00;99.90;;;;;;5056056;28;20456;-70
2024/01/13 06:24:54;;;;;;;50.37;26.67;;;-2.00;99.90;;;;;;5046121;28;20519;-70
2024/01/13 06:27:20;;;;;;;52.57;26.23;;;-2.00;99.90;;;;;;5048013;28;20188;-70
2024/01/13 06:29:45;;;;;;;56.97;25.57;;;-2.00;99.90;;;;;;5047869;28;20166;-71
2024/01/13 06:32:11;;;;;;;48.67;21.90;;;-2.10;99.90;;;;;;5049313;28;20550;-70
2024/01/13 06:34:36;;;;;;;52.47;24.93;;;-2.00;99.90;;;;;;5064748;28;20241;-70
2024/01/13 06:37:02;;;;;;;49.70;22.67;;;-2.20;99.90;;;;;;5035438;28;20251;-70
2024/01/13 06:39:27;;;;;;;52.40;21.80;;;-2.30;99.90;;;;;;5051274;28;20202;-70
2024/01/13 06:41:53;;;;;;;47.93;24.00;;;-2.30;99.90;;;;;;5048394;28;20184;-70
2024/01/13 06:44:18;;;;;;;52.67;25.13;;;-2.30;99.90;;;;;;5060188;28;20196;-70
2024/01/13 06:46:44;;;;;;;51.13;23.90;;;-2.40;99.90;;;;;;5048924;28;20643;-70
2024/01/13 06:49:09;;;;;;;45.80;23.77;;;-2.50;99.90;;;;;;5039299;28;20181;-70
2024/01/13 06:51:35;;;;;;;47.77;22.53;;;-2.50;99.90;;;;;;5040222;28;20187;-70
2024/01/13 06:54:01;;;;;;;56.80;24.57;;;-2.40;99.90;;;;;;5045652;28;20202;-70
2024/01/13 06:56:27;;;;;;;42.80;20.30;;;-2.40;99.90;;;;;;5055779;28;20641;-70
2024/01/13 06:58:52;;;;;;;55.50;24.30;;;-2.40;99.90;;;;;;5039112;28;20182;-70
2024/01/13 07:01:17;;;;;;;56.60;24.53;;;-2.40;99.90;;;;;;5044210;28;20173;-70
2024/01/13 07:03:43;;;;;;;41.87;21.13;;;-2.40;99.90;;;;;;5050729;28;20192;-70
2024/01/13 07:06:09;;;;;;;44.40;23.13;;;-2.40;99.90;;;;;;5034582;28;20805;-70
2024/01/13 07:08:34;;;;;;;56.07;27.13;;;-2.40;99.90;;;;;;5045599;28;20176;-71
2024/01/13 07:11:00;;;;;;;52.40;25.00;;;-2.40;99.90;;;;;;5054385;28;20614;-70
2024/01/13 07:13:25;;;;;;;48.73;25.47;;;-2.40;99.90;;;;;;5064382;28;20698;-70
2024/01/13 07:15:51;;;;;;;54.50;23.50;;;-2.50;99.90;;;;;;5055669;28;20192;-70
2024/01/13 07:18:16;;;;;;;42.13;20.90;;;-2.40;99.90;;;;;;5045883;28;20253;-70
2024/01/13 07:20:42;;;;;;;52.00;25.10;;;-2.40;99.90;;;;;;5047565;28;20773;-70
2024/01/13 07:23:07;;;;;;;54.50;26.93;;;-2.30;99.90;;;;;;5054040;28;20186;-70
2024/01/13 07:25:33;;;;;;;55.47;25.90;;;-2.30;99.90;;;;;;5032592;28;20169;-70
2024/01/13 07:27:59;;;;;;;45.77;22.90;;;-2.20;99.90;;;;;;5058899;28;20542;-70
2024/01/13 07:30:25;;;;;;;53.70;24.03;;;-2.30;99.90;;;;;;5071579;28;20422;-71
2024/01/13 07:32:50;;;;;;;49.10;27.90;;;-2.30;99.90;;;;;;5055488;28;20181;-71
2024/01/13 07:35:16;;;;;;;47.80;25.20;;;-2.40;99.90;;;;;;5053755;28;20209;-70
2024/01/13 07:37:43;;;;;;;47.20;23.73;;;-2.50;99.90;;;;;;5056421;28;20189;-70
2024/01/13 07:40:09;;;;;;;57.03;24.73;;;-2.50;99.90;;;;;;5051467;28;20611;-70
2024/01/13 07:42:38;;;;;;;61.50;26.10;;;-2.60;99.90;;;;;;5056595;28;20511;-70
2024/01/13 07:45:04;;;;;;;50.37;27.47;;;-2.70;99.90;;;;;;5062927;28;20447;-70
2024/01/13 07:47:30;;;;;;;44.60;22.67;;;-2.70;99.90;;;;;;5070238;28;20415;-70
2024/01/13 07:49:55;;;;;;;50.30;23.70;;;-2.70;99.90;;;;;;5046539;28;20777;-70
2024/01/13 07:52:21;;;;;;;52.20;22.43;;;-2.80;99.90;;;;;;5044842;28;20201;-70
2024/01/13 07:54:46;;;;;;;51.70;24.00;;;-2.80;99.90;;;;;;5053404;28;20560;-70
2024/01/13 07:57:14;;;;;;;41.87;19.83;;;-2.80;99.90;;;;;;5054669;28;20181;-70
2024/01/13 07:59:39;;;;;;;42.23;22.53;;;-2.70;99.90;;;;;;5064322;28;20254;-70
2024/01/13 08:02:05;;;;;;;42.17;19.73;;;-2.70;99.90;;;;;;5057571;28;20937;-70
2024/01/13 08:04:30;;;;;;;35.90;19.40;;;-2.60;99.90;;;;;;5049765;28;20206;-70
2024/01/13 08:06:56;;;;;;;49.30;23.97;;;-2.50;99.90;;;;;;5050208;28;20215;-70
2024/01/13 08:09:22;;;;;;;48.83;21.83;;;-2.50;99.90;;;;;;5053817;28;20303;-70
2024/01/13 08:11:48;;;;;;;49.13;21.80;;;-2.60;99.90;;;;;;5043071;28;20582;-70
2024/01/13 08:14:16;;;;;;;39.63;19.37;;;-2.60;99.90;;;;;;5057929;28;20439;-71
2024/01/13 08:16:42;;;;;;;39.87;19.87;;;-2.60;99.90;;;;;;5052290;28;20178;-70
2024/01/13 08:19:09;;;;;;;43.30;23.43;;;-2.60;99.90;;;;;;5046177;28;20490;-70
2024/01/13 08:21:35;;;;;;;40.13;21.23;;;-2.50;99.90;;;;;;5058016;28;20881;-70
2024/01/13 08:24:01;;;;;;;47.20;22.10;;;-2.40;99.90;;;;;;5053646;28;20526;-71
2024/01/13 08:26:29;;;;;;;45.43;25.67;;;-2.30;99.90;;;;;;5048863;28;20435;-71
2024/01/13 08:28:54;;;;;;;47.70;21.67;;;-2.30;99.90;;;;;;5049822;28;20247;-70
2024/01/13 08:31:20;;;;;;;43.10;21.57;;;-2.40;99.90;;;;;;5060174;28;20419;-71
2024/01/13 08:33:46;;;;;;;47.20;23.50;;;-2.30;99.90;;;;;;5061867;28;20209;-70
2024/01/13 08:36:11;;;;;;;53.87;23.87;;;-2.30;99.90;;;;;;5060077;28;20161;-71
2024/01/13 08:38:37;;;;;;;40.53;20.97;;;-2.20;99.90;;;;;;5055352;28;20261;-71
2024/01/13 08:41:02;;;;;;;45.77;22.53;;;-2.30;99.90;;;;;;5055591;28;20561;-71
2024/01/13 08:43:28;;;;;;;46.20;22.83;;;-2.40;99.90;;;;;;5049110;28;20220;-71
2024/01/13 08:45:53;;;;;;;43.10;23.43;;;-2.30;99.90;;;;;;5047435;28;20193;-71
2024/01/13 08:48:19;;;;;;;53.80;24.17;;;-2.20;99.90;;;;;;5053261;28;20170;-71
2024/01/13 08:50:44;;;;;;;49.90;22.33;;;-2.20;99.90;;;;;;5050997;28;20182;-71
2024/01/13 08:53:10;;;;;;;42.47;21.60;;;-2.20;99.90;;;;;;5063228;28;20177;-71
2024/01/13 08:55:35;;;;;;;46.70;21.20;;;-2.30;99.90;;;;;;5060422;28;20185;-71
2024/01/13 08:58:01;;;;;;;43.40;20.07;;;-2.30;99.90;;;;;;5056751;28;20258;-72
2024/01/13 09:00:28;;;;;;;38.80;18.10;;;-2.20;99.90;;;;;;5048565;28;20205;-73
2024/01/13 09:02:54;;;;;;;37.73;20.23;;;-2.10;99.90;;;;;;5060344;28;20169;-74
2024/01/13 09:05:19;;;;;;;31.73;16.83;;;-2.10;99.90;;;;;;5045738;28;20754;-74
2024/01/13 09:07:45;;;;;;;41.60;19.63;;;-2.00;99.90;;;;;;5039107;28;20253;-74
2024/01/13 09:10:10;;;;;;;37.70;19.00;;;-1.90;99.90;;;;;;5052905;28;20185;-74
2024/01/13 09:12:37;;;;;;;33.43;19.40;;;-1.80;99.90;;;;;;5055389;28;20670;-74
2024/01/13 09:15:06;;;;;;;34.73;18.93;;;-1.60;99.90;;;;;;5060709;28;20247;-74
2024/01/13 09:17:32;;;;;;;37.40;18.47;;;-1.50;99.90;;;;;;5039756;28;20462;-73
2024/01/13 09:19:57;;;;;;;36.70;18.93;;;-1.40;99.90;;;;;;5045709;28;20460;-71
2024/01/13 09:22:23;;;;;;;32.77;19.67;;;-1.40;99.90;;;;;;5062600;28;20563;-73
2024/01/13 09:24:48;;;;;;;25.40;15.20;;;-1.30;99.90;;;;;;5052777;28;20194;-71
2024/01/13 09:27:16;;;;;;;29.60;14.93;;;-1.40;99.90;;;;;;5057306;28;20186;-74
2024/01/13 09:29:44;;;;;;;27.83;16.83;;;-1.30;99.90;;;;;;5059292;28;20216;-76
2024/01/13 09:32:09;;;;;;;25.67;14.60;;;-1.20;99.90;;;;;;5051743;28;20460;-71
2024/01/13 09:34:35;;;;;;;20.73;12.20;;;-1.10;99.90;;;;;;5033286;28;20997;-71
2024/01/13 09:37:00;;;;;;;19.67;13.07;;;-1.10;99.90;;;;;;5051552;28;20234;-72
2024/01/13 09:39:26;;;;;;;25.07;12.13;;;-1.00;99.90;;;;;;5052310;28;20267;-72
2024/01/13 09:41:52;;;;;;;19.20;9.57;;;-1.00;99.90;;;;;;5048480;28;20588;-74
2024/01/13 09:44:23;;;;;;;15.30;9.60;;;-1.10;99.90;;;;;;5060861;28;20198;-73
2024/01/13 09:46:51;;;;;;;18.63;12.10;;;-1.20;99.90;;;;;;5055613;28;21267;-75
2024/01/13 09:49:18;;;;;;;21.93;11.80;;;-1.30;99.90;;;;;;5055929;28;20428;-75
2024/01/13 09:51:45;;;;;;;20.03;10.27;;;-1.30;99.90;;;;;;5053111;28;20874;-74
2024/01/13 09:54:23;;;;;;;19.27;11.40;;;-1.30;99.90;;;;;;5047866;28;20455;-75
2024/01/13 09:56:49;;;;;;;27.30;14.03;;;-1.20;99.90;;;;;;5059833;28;20512;-73
2024/01/13 09:59:16;;;;;;;20.87;10.37;;;-1.10;99.90;;;;;;5055862;28;20949;-74
2024/01/13 10:01:42;;;;;;;18.47;11.23;;;-1.00;99.90;;;;;;5059208;28;20455;-74
2024/01/13 10:04:08;;;;;;;23.53;11.37;;;-1.10;99.90;;;;;;5062696;28;20940;-74
2024/01/13 10:06:36;;;;;;;17.50;10.50;;;-1.10;99.90;;;;;;5072272;28;20422;-74
2024/01/13 10:09:03;;;;;;;17.67;11.13;;;-1.10;99.90;;;;;;5044142;28;20520;-74
2024/01/13 10:11:29;;;;;;;16.90;11.03;;;-1.00;99.90;;;;;;5053919;28;20427;-74
2024/01/13 10:14:14;;;;;;;17.10;11.43;;;-0.90;99.90;;;;;;5062577;28;20467;-74
2024/01/13 10:16:39;;;;;;;17.87;10.43;;;-0.80;99.90;;;;;;5049810;28;20167;-74
2024/01/13 10:19:07;;;;;;;15.57;10.00;;;-0.80;99.90;;;;;;5060108;28;20924;-74
2024/01/13 10:21:33;;;;;;;19.77;10.37;;;-0.60;99.90;;;;;;5072620;28;20201;-74
2024/01/13 10:24:00;;;;;;;20.23;10.17;;;-0.60;99.90;;;;;;5048626;28;20444;-74
2024/01/13 10:26:28;;;;;;;15.90;11.20;;;-0.60;99.90;;;;;;5042064;28;20833;-74
2024/01/13 10:28:57;;;;;;;20.37;12.50;;;-0.60;99.90;;;;;;5059782;28;20431;-73
2024/01/13 10:31:23;;;;;;;22.20;11.90;;;-0.80;99.90;;;;;;5051393;28;20444;-74
2024/01/13 10:33:50;;;;;;;20.23;13.87;;;-0.80;99.90;;;;;;5051810;28;20985;-74
2024/01/13 10:36:16;;;;;;;20.07;11.53;;;-0.80;99.90;;;;;;5048497;28;20486;-74
2024/01/13 10:38:43;;;;;;;23.33;13.60;;;-0.80;99.90;;;;;;5032763;28;20500;-74
2024/01/13 10:41:09;;;;;;;19.40;12.27;;;-0.80;99.90;;;;;;5032279;28;20476;-73
2024/01/13 10:43:40;;;;;;;26.07;13.03;;;-0.80;99.90;;;;;;5056662;28;20530;-74
2024/01/13 10:46:13;;;;;;;21.47;14.33;;;-0.60;99.90;;;;;;5060263;28;20508;-74
2024/01/13 10:48:43;;;;;;;17.97;12.27;;;-0.50;99.90;;;;;;5056289;28;20523;-73
2024/01/13 10:51:23;;;;;;;20.13;11.90;;;-0.50;99.90;;;;;;5052104;28;20894;-73
2024/01/13 10:53:51;;;;;;;23.17;13.03;;;-0.50;99.90;;;;;;5051279;28;20546;-73
2024/01/13 10:56:16;;;;;;;26.27;13.77;;;-0.50;99.90;;;;;;5057485;28;20440;-73
2024/01/13 10:58:44;;;;;;;22.60;13.77;;;-0.70;99.90;;;;;;5059432;28;20467;-73
2024/01/13 11:01:10;;;;;;;23.00;12.47;;;-0.60;99.90;;;;;;5041874;28;20218;-72
2024/01/13 11:03:38;;;;;;;19.07;11.40;;;-0.70;99.90;;;;;;5052342;28;20443;-71
2024/01/13 11:06:04;;;;;;;19.80;11.00;;;-0.70;99.90;;;;;;5041198;28;20174;-74
2024/01/13 11:08:30;;;;;;;18.00;11.33;;;-0.60;99.90;;;;;;5051676;28;20428;-74
2024/01/13 11:10:58;;;;;;;21.20;12.37;;;-0.60;99.90;;;;;;5054015;28;20499;-74
2024/01/13 11:13:28;;;;;;;18.70;10.87;;;-0.60;99.90;;;;;;5059510;28;20493;-74
2024/01/13 11:16:06;;;;;;;18.07;10.53;;;-0.60;99.90;;;;;;5066628;28;20514;-74
2024/01/13 11:18:40;;;;;;;20.00;11.90;;;-0.70;99.90;;;;;;5069466;28;20423;-74
2024/01/13 11:21:07;;;;;;;20.83;11.77;;;-0.60;99.90;;;;;;5063890;28;20461;-74
2024/01/13 11:23:49;;;;;;;22.70;12.30;;;-0.50;99.90;;;;;;5031770;28;20451;-73
2024/01/13 11:26:19;;;;;;;21.80;12.00;;;-0.40;99.90;;;;;;5057190;28;20557;-74
2024/01/13 11:28:51;;;;;;;24.67;13.27;;;-0.40;99.90;;;;;;5050145;28;20444;-71
2024/01/13 11:31:30;;;;;;;19.37;11.40;;;-0.40;99.90;;;;;;5059813;28;20430;-69
2024/01/13 11:33:56;;;;;;;16.77;10.00;;;-0.40;99.90;;;;;;5051625;28;20593;-71
2024/01/13 11:36:22;;;;;;;18.93;10.70;;;-0.50;99.90;;;;;;5050861;28;20457;-69
2024/01/13 11:38:48;;;;;;;18.47;10.20;;;-0.50;99.90;;;;;;5051550;28;20415;-69
2024/01/13 11:41:16;;;;;;;15.83;10.60;;;-0.40;99.90;;;;;;5052262;28;20205;-70
2024/01/13 11:43:44;;;;;;;15.53;10.57;;;-0.30;99.90;;;;;;5052393;28;20448;-69
2024/01/13 11:46:14;;;;;;;14.77;9.20;;;-0.20;99.90;;;;;;5057662;28;20427;-69
2024/01/13 11:48:41;;;;;;;16.03;11.23;;;-0.20;99.90;;;;;;5049112;28;20515;-69
2024/01/13 11:51:13;;;;;;;19.87;12.43;;;-0.20;99.90;;;;;;5033188;28;20437;-71
2024/01/13 11:53:41;;;;;;;19.53;11.43;;;-0.30;99.90;;;;;;5035220;28;20961;-71
2024/01/13 11:56:08;;;;;;;20.10;12.27;;;-0.30;99.90;;;;;;5062832;28;20820;-71
2024/01/13 11:58:35;;;;;;;20.67;12.17;;;-0.30;99.90;;;;;;5058004;28;20436;-71
2024/01/13 12:01:05;;;;;;;14.40;10.70;;;-0.40;99.90;;;;;;5055276;28;20460;-68
2024/01/13 12:03:31;;;;;;;21.97;12.50;;;-0.30;99.90;;;;;;5035434;28;20447;-71
2024/01/13 12:05:58;;;;;;;19.43;10.93;;;-0.20;99.90;;;;;;5041076;28;20437;-71
2024/01/13 12:08:25;;;;;;;21.30;13.60;;;-0.20;99.90;;;;;;5039939;28;20616;-71
2024/01/13 12:10:53;;;;;;;16.90;11.83;;;-0.30;99.90;;;;;;5058252;28;20440;-69
2024/01/13 12:13:20;;;;;;;16.40;10.40;;;-0.50;99.90;;;;;;5060696;28;20501;-69
2024/01/13 12:15:46;;;;;;;17.93;11.13;;;-0.40;99.90;;;;;;5055596;28;21075;-69
2024/01/13 12:18:22;;;;;;;17.07;10.73;;;-0.40;99.90;;;;;;5057009;28;20507;-70
2024/01/13 12:21:00;;;;;;;17.40;10.93;;;-0.50;99.90;;;;;;5062086;28;20450;-73
2024/01/13 12:23:26;;;;;;;19.30;10.83;;;-0.60;99.90;;;;;;5045243;28;20460;-73